sensor_id;sensor_type;location;lat;lon;timestamp;temperature;humidity
26947;DHT22;14501;52.282;10.560;2023-03-31T00:01:51;10.70;99.90
26947;DHT22;14501;52.282;10.560;2023-03-31T00:04:18;10.60;99.90
26947;DHT22;14501;52.282;10.560;2023-03-31T00:06:48;10.50;99.90
26947;DHT22;14501;52.282;10.560;2023-03-31T00:09:15;10.50;99.90
26947;DHT22;14501;52.282;10.560;2023-03-31T00:11:47;10.50;99.90
26947;DHT22;14501;52.282;10.560;2023-03-31T00:14:14;10.40;99.90
26947;DHT22;14501;52.282;10.560;2023-03-31T00:16:40;10.10;99.90
26947;DHT22;14501;52.282;10.560;2023-03-31T00:19:06;10.30;99.90
26947;DHT22;14501;52.282;10.560;2023-03-31T00:21:34;10.20;99.90
26947;DHT22;14501;52.282;10.560;2023-03-31T00:24:06;10.10;99.90
26947;DHT22;14501;52.282;10.560;2023-03-31T00:26:32;10.10;99.90
26947;DHT22;14501;52.282;10.560;2023-03-31T00:28:59;10.10;99.90
26947;DHT22;14501;52.282;10.560;2023-03-31T00:31:25;10.10;99.90
26947;DHT22;14501;52.282;10.560;2023-03-31T00:33:54;10.10;99.90
26947;DHT22;14501;52.282;10.560;2023-03-31T00:36:20;10.10;99.90
26947;DHT22;14501;52.282;10.560;2023-03-31T00:38:48;10.00;99.90
26947;DHT22;14501;52.282;10.560;2023-03-31T00:41:16;10.00;99.90
26947;DHT22;14501;52.282;10.560;2023-03-31T00:44:01;10.10;99.90
26947;DHT22;14501;52.282;10.560;2023-03-31T00:46:43;10.00;99.90
26947;DHT22;14501;52.282;10.560;2023-03-31T00:49:35;10.00;99.90
26947;DHT22;14501;52.282;10.560;2023-03-31T00:52:24;10.10;99.90
26947;DHT22;14501;52.282;10.560;2023-03-31T00:54:55;10.10;99.90
26947;DHT22;14501;52.282;10.560;2023-03-31T00:57:22;10.10;99.90
26947;DHT22;14501;52.282;10.560;2023-03-31T00:59:52;10.20;99.90
26947;DHT22;14501;52.282;10.560;2023-03-31T01:02:18;10.20;99.90
26947;DHT22;14501;52.282;10.560;2023-03-31T01:04:52;10.10;99.90
26947;DHT22;14501;52.282;10.560;2023-03-31T01:07:24;10.10;99.90
26947;DHT22;14501;52.282;10.560;2023-03-31T01:09:52;10.10;99.90
26947;DHT22;14501;52.282;10.560;2023-03-31T01:12:21;10.10;99.90
26947;DHT22;14501;52.282;10.560;2023-03-31T01:14:49;10.10;99.90
26947;DHT22;14501;52.282;10.560;2023-03-31T01:17:17;10.20;99.90
26947;DHT22;14501;52.282;10.560;2023-03-31T01:36:42;10.10;99.90
26947;DHT22;14501;52.282;10.560;2023-03-31T01:44:45;9.90;99.90
26947;DHT22;14501;52.282;10.560;2023-03-31T01:47:17;9.90;99.90
26947;DHT22;14501;52.282;10.560;2023-03-31T01:50:20;10.00;99.90
26947;DHT22;14501;52.282;10.560;2023-03-31T01:53:11;10.00;99.90
26947;DHT22;14501;52.282;10.560;2023-03-31T01:55:45;10.10;99.90
26947;DHT22;14501;52.282;10.560;2023-03-31T01:58:19;10.20;99.90
26947;DHT22;14501;52.282;10.560;2023-03-31T02:00:54;10.20;99.90
26947;DHT22;14501;52.282;10.560;2023-03-31T02:03:52;10.20;99.90
26947;DHT22;14501;52.282;10.560;2023-03-31T02:06:21;10.20;99.90
26947;DHT22;14501;52.282;10.560;2023-03-31T02:08:53;10.30;99.90
26947;DHT22;14501;52.282;10.560;2023-03-31T02:11:21;10.30;99.90
26947;DHT22;14501;52.282;10.560;2023-03-31T02:13:50;10.40;99.90
26947;DHT22;14501;52.282;10.560;2023-03-31T02:16:21;10.50;99.90
26947;DHT22;14501;52.282;10.560;2023-03-31T02:18:52;10.50;99.90
26947;DHT22;14501;52.282;10.560;2023-03-31T02:21:19;10.50;99.90
26947;DHT22;14501;52.282;10.560;2023-03-31T02:23:48;10.50;99.90
26947;DHT22;14501;52.282;10.560;2023-03-31T02:26:18;10.40;99.90
26947;DHT22;14501;52.282;10.560;2023-03-31T02:28:45;10.30;99.90
26947;DHT22;14501;52.282;10.560;2023-03-31T02:34:13;10.10;99.90
26947;DHT22;14501;52.282;10.560;2023-03-31T02:36:40;10.00;99.90
26947;DHT22;14501;52.282;10.560;2023-03-31T02:39:20;9.90;99.90
26947;DHT22;14501;52.282;10.560;2023-03-31T02:41:48;9.90;99.90
26947;DHT22;14501;52.282;10.560;2023-03-31T02:44:14;9.80;99.90
26947;DHT22;14501;52.282;10.560;2023-03-31T02:46:41;9.70;99.90
26947;DHT22;14501;52.282;10.560;2023-03-31T02:49:09;9.70;99.90
26947;DHT22;14501;52.282;10.560;2023-03-31T03:09:00;9.50;99.90
26947;DHT22;14501;52.282;10.560;2023-03-31T03:11:55;9.50;99.90
26947;DHT22;14501;52.282;10.560;2023-03-31T03:20:00;9.50;99.90
26947;DHT22;14501;52.282;10.560;2023-03-31T03:22:26;9.50;99.90
26947;DHT22;14501;52.282;10.560;2023-03-31T03:24:52;9.40;99.90
26947;DHT22;14501;52.282;10.560;2023-03-31T03:27:19;9.40;99.90
26947;DHT22;14501;52.282;10.560;2023-03-31T03:29:47;9.40;99.90
26947;DHT22;14501;52.282;10.560;2023-03-31T03:32:12;9.50;99.90
26947;DHT22;14501;52.282;10.560;2023-03-31T03:34:38;9.50;99.90
26947;DHT22;14501;52.282;10.560;2023-03-31T03:37:04;9.60;99.90
26947;DHT22;14501;52.282;10.560;2023-03-31T03:39:30;9.70;99.90
26947;DHT22;14501;52.282;10.560;2023-03-31T03:41:56;9.70;99.90
26947;DHT22;14501;52.282;10.560;2023-03-31T03:44:22;9.90;99.90
26947;DHT22;14501;52.282;10.560;2023-03-31T03:46:47;9.90;99.90
26947;DHT22;14501;52.282;10.560;2023-03-31T03:49:13;10.00;99.90
26947;DHT22;14501;52.282;10.560;2023-03-31T03:51:39;10.00;99.90
26947;DHT22;14501;52.282;10.560;2023-03-31T03:54:05;10.10;99.90
26947;DHT22;14501;52.282;10.560;2023-03-31T03:56:31;10.10;99.90
26947;DHT22;14501;52.282;10.560;2023-03-31T03:58:56;10.20;99.90
26947;DHT22;14501;52.282;10.560;2023-03-31T04:01:22;10.20;99.90
26947;DHT22;14501;52.282;10.560;2023-03-31T04:03:48;10.30;99.90
26947;DHT22;14501;52.282;10.560;2023-03-31T04:06:14;10.30;99.90
26947;DHT22;14501;52.282;10.560;2023-03-31T04:08:39;10.30;99.90
26947;DHT22;14501;52.282;10.560;2023-03-31T04:11:16;10.30;99.90
26947;DHT22;14501;52.282;10.560;2023-03-31T04:13:43;10.20;99.90
26947;DHT22;14501;52.282;10.560;2023-03-31T04:16:09;10.20;99.90
26947;DHT22;14501;52.282;10.560;2023-03-31T04:18:35;10.10;99.90
26947;DHT22;14501;52.282;10.560;2023-03-31T04:21:22;10.00;99.90
26947;DHT22;14501;52.282;10.560;2023-03-31T04:23:49;10.00;99.90
26947;DHT22;14501;52.282;10.560;2023-03-31T04:26:24;9.90;99.90
26947;DHT22;14501;52.282;10.560;2023-03-31T04:28:58;9.90;99.90
26947;DHT22;14501;52.282;10.560;2023-03-31T04:31:27;9.80;99.90
26947;DHT22;14501;52.282;10.560;2023-03-31T04:33:55;9.70;99.90
26947;DHT22;14501;52.282;10.560;2023-03-31T04:36:25;9.60;99.90
26947;DHT22;14501;52.282;10.560;2023-03-31T04:38:51;9.50;99.90
26947;DHT22;14501;52.282;10.560;2023-03-31T04:41:22;9.40;99.90
26947;DHT22;14501;52.282;10.560;2023-03-31T04:43:48;9.40;99.90
26947;DHT22;14501;52.282;10.560;2023-03-31T04:46:14;9.30;99.90
26947;DHT22;14501;52.282;10.560;2023-03-31T04:48:40;9.30;99.90
26947;DHT22;14501;52.282;10.560;2023-03-31T04:51:06;9.20;99.90
26947;DHT22;14501;52.282;10.560;2023-03-31T04:53:32;9.20;99.90
26947;DHT22;14501;52.282;10.560;2023-03-31T04:55:57;9.10;99.90
26947;DHT22;14501;52.282;10.560;2023-03-31T04:58:23;9.10;99.90
26947;DHT22;14501;52.282;10.560;2023-03-31T05:00:50;9.00;99.90
26947;DHT22;14501;52.282;10.560;2023-03-31T05:03:15;9.00;99.90
26947;DHT22;14501;52.282;10.560;2023-03-31T05:05:41;9.00;99.90
26947;DHT22;14501;52.282;10.560;2023-03-31T05:08:07;9.10;99.90
26947;DHT22;14501;52.282;10.560;2023-03-31T05:10:32;9.00;99.90
26947;DHT22;14501;52.282;10.560;2023-03-31T05:12:59;9.10;99.90
26947;DHT22;14501;52.282;10.560;2023-03-31T05:15:25;9.10;99.90
26947;DHT22;14501;52.282;10.560;2023-03-31T05:17:51;9.20;99.90
26947;DHT22;14501;52.282;10.560;2023-03-31T05:20:18;9.30;99.90
26947;DHT22;14501;52.282;10.560;2023-03-31T05:22:45;9.50;99.90
26947;DHT22;14501;52.282;10.560;2023-03-31T05:25:12;9.60;99.90
26947;DHT22;14501;52.282;10.560;2023-03-31T05:27:46;9.70;99.90
26947;DHT22;14501;52.282;10.560;2023-03-31T05:30:13;9.80;99.90
26947;DHT22;14501;52.282;10.560;2023-03-31T05:32:39;10.00;99.90
26947;DHT22;14501;52.282;10.560;2023-03-31T05:35:06;10.10;99.90
26947;DHT22;14501;52.282;10.560;2023-03-31T05:37:32;10.20;99.90
26947;DHT22;14501;52.282;10.560;2023-03-31T05:39:58;10.20;99.90
26947;DHT22;14501;52.282;10.560;2023-03-31T05:42:23;10.30;99.90
26947;DHT22;14501;52.282;10.560;2023-03-31T05:44:49;10.30;99.90
26947;DHT22;14501;52.282;10.560;2023-03-31T05:47:15;10.40;99.90
26947;DHT22;14501;52.282;10.560;2023-03-31T05:49:41;10.40;99.90
26947;DHT22;14501;52.282;10.560;2023-03-31T05:52:09;10.50;99.90
26947;DHT22;14501;52.282;10.560;2023-03-31T05:54:35;10.50;99.90
26947;DHT22;14501;52.282;10.560;2023-03-31T05:57:00;10.60;99.90
26947;DHT22;14501;52.282;10.560;2023-03-31T05:59:26;10.70;99.90
26947;DHT22;14501;52.282;10.560;2023-03-31T06:01:52;10.70;99.90
26947;DHT22;14501;52.282;10.560;2023-03-31T06:04:19;10.80;99.90
26947;DHT22;14501;52.282;10.560;2023-03-31T06:06:45;10.80;99.90
26947;DHT22;14501;52.282;10.560;2023-03-31T06:09:10;10.80;99.90
26947;DHT22;14501;52.282;10.560;2023-03-31T06:11:39;10.90;99.90
26947;DHT22;14501;52.282;10.560;2023-03-31T06:14:05;10.90;99.90
26947;DHT22;14501;52.282;10.560;2023-03-31T06:16:30;10.90;99.90
26947;DHT22;14501;52.282;10.560;2023-03-31T06:18:56;10.90;99.90
26947;DHT22;14501;52.282;10.560;2023-03-31T06:21:22;10.90;99.90
26947;DHT22;14501;52.282;10.560;2023-03-31T06:23:48;10.90;99.90
26947;DHT22;14501;52.282;10.560;2023-03-31T06:26:16;10.90;99.90
26947;DHT22;14501;52.282;10.560;2023-03-31T06:28:43;10.90;99.90
26947;DHT22;14501;52.282;10.560;2023-03-31T06:31:17;11.00;99.90
26947;DHT22;14501;52.282;10.560;2023-03-31T06:33:44;11.00;99.90
26947;DHT22;14501;52.282;10.560;2023-03-31T06:36:12;11.00;99.90
26947;DHT22;14501;52.282;10.560;2023-03-31T06:38:38;11.40;99.90
26947;DHT22;14501;52.282;10.560;2023-03-31T06:41:05;11.10;99.90
26947;DHT22;14501;52.282;10.560;2023-03-31T06:43:32;11.20;99.90
26947;DHT22;14501;52.282;10.560;2023-03-31T06:46:00;11.20;99.90
26947;DHT22;14501;52.282;10.560;2023-03-31T06:48:26;11.40;99.90
26947;DHT22;14501;52.282;10.560;2023-03-31T06:50:53;11.60;99.90
26947;DHT22;14501;52.282;10.560;2023-03-31T06:53:19;11.90;99.90
26947;DHT22;14501;52.282;10.560;2023-03-31T06:55:46;12.10;99.90
26947;DHT22;14501;52.282;10.560;2023-03-31T06:58:12;12.30;99.90
26947;DHT22;14501;52.282;10.560;2023-03-31T07:00:38;12.30;99.90
26947;DHT22;14501;52.282;10.560;2023-03-31T07:03:04;12.30;99.90
26947;DHT22;14501;52.282;10.560;2023-03-31T07:05:30;12.20;99.90
26947;DHT22;14501;52.282;10.560;2023-03-31T07:07:58;11.80;99.90
26947;DHT22;14501;52.282;10.560;2023-03-31T07:10:26;12.10;99.90
26947;DHT22;14501;52.282;10.560;2023-03-31T07:12:52;12.10;99.90
26947;DHT22;14501;52.282;10.560;2023-03-31T07:15:18;12.20;99.90
26947;DHT22;14501;52.282;10.560;2023-03-31T07:17:44;12.40;99.90
26947;DHT22;14501;52.282;10.560;2023-03-31T07:20:11;12.60;99.90
26947;DHT22;14501;52.282;10.560;2023-03-31T07:22:40;12.60;99.90
26947;DHT22;14501;52.282;10.560;2023-03-31T07:25:09;12.70;99.90
26947;DHT22;14501;52.282;10.560;2023-03-31T07:27:35;12.60;99.90
26947;DHT22;14501;52.282;10.560;2023-03-31T07:30:05;12.50;99.90
26947;DHT22;14501;52.282;10.560;2023-03-31T07:32:31;12.30;99.90
26947;DHT22;14501;52.282;10.560;2023-03-31T07:34:58;12.30;99.90
26947;DHT22;14501;52.282;10.560;2023-03-31T07:37:24;12.20;99.90
26947;DHT22;14501;52.282;10.560;2023-03-31T07:39:49;12.20;99.90
26947;DHT22;14501;52.282;10.560;2023-03-31T07:42:15;12.10;99.90
26947;DHT22;14501;52.282;10.560;2023-03-31T07:44:41;12.00;99.90
26947;DHT22;14501;52.282;10.560;2023-03-31T07:47:06;11.80;99.90
26947;DHT22;14501;52.282;10.560;2023-03-31T07:49:33;11.80;99.90
26947;DHT22;14501;52.282;10.560;2023-03-31T07:51:59;11.80;99.90
26947;DHT22;14501;52.282;10.560;2023-03-31T07:54:26;11.70;99.90
26947;DHT22;14501;52.282;10.560;2023-03-31T07:56:51;11.70;99.90
26947;DHT22;14501;52.282;10.560;2023-03-31T07:59:17;11.70;99.90
26947;DHT22;14501;52.282;10.560;2023-03-31T08:01:43;11.70;99.90
26947;DHT22;14501;52.282;10.560;2023-03-31T08:04:10;11.70;99.90
26947;DHT22;14501;52.282;10.560;2023-03-31T08:06:37;11.80;99.90
26947;DHT22;14501;52.282;10.560;2023-03-31T08:09:03;11.80;99.90
26947;DHT22;14501;52.282;10.560;2023-03-31T08:11:29;11.90;99.90
26947;DHT22;14501;52.282;10.560;2023-03-31T08:13:55;11.90;99.90
26947;DHT22;14501;52.282;10.560;2023-03-31T08:16:21;11.90;99.90
26947;DHT22;14501;52.282;10.560;2023-03-31T08:18:47;11.90;99.90
26947;DHT22;14501;52.282;10.560;2023-03-31T08:21:13;11.90;99.90
26947;DHT22;14501;52.282;10.560;2023-03-31T08:23:39;11.80;99.90
26947;DHT22;14501;52.282;10.560;2023-03-31T08:26:09;11.80;99.90
26947;DHT22;14501;52.282;10.560;2023-03-31T08:28:35;11.70;99.90
26947;DHT22;14501;52.282;10.560;2023-03-31T08:31:07;11.70;99.90
26947;DHT22;14501;52.282;10.560;2023-03-31T08:39:31;11.60;99.90
26947;DHT22;14501;52.282;10.560;2023-03-31T08:42:31;11.60;99.90
26947;DHT22;14501;52.282;10.560;2023-03-31T08:47:38;11.60;99.90
26947;DHT22;14501;52.282;10.560;2023-03-31T08:50:16;11.70;99.90
26947;DHT22;14501;52.282;10.560;2023-03-31T08:52:51;11.70;99.90
26947;DHT22;14501;52.282;10.560;2023-03-31T08:55:24;11.70;99.90
26947;DHT22;14501;52.282;10.560;2023-03-31T08:57:59;11.80;99.90
26947;DHT22;14501;52.282;10.560;2023-03-31T09:00:29;11.80;99.90
26947;DHT22;14501;52.282;10.560;2023-03-31T09:06:49;11.70;99.90
26947;DHT22;14501;52.282;10.560;2023-03-31T09:14:09;11.80;99.90
26947;DHT22;14501;52.282;10.560;2023-03-31T09:19:25;11.80;99.90
26947;DHT22;14501;52.282;10.560;2023-03-31T09:21:55;11.90;99.90
26947;DHT22;14501;52.282;10.560;2023-03-31T09:24:38;11.90;99.90
26947;DHT22;14501;52.282;10.560;2023-03-31T09:27:10;11.90;99.90
26947;DHT22;14501;52.282;10.560;2023-03-31T09:29:52;12.00;99.90
26947;DHT22;14501;52.282;10.560;2023-03-31T09:34:55;12.20;99.90
26947;DHT22;14501;52.282;10.560;2023-03-31T09:37:27;12.30;99.90
26947;DHT22;14501;52.282;10.560;2023-03-31T09:39:54;12.40;99.90
26947;DHT22;14501;52.282;10.560;2023-03-31T09:42:20;12.40;99.90
26947;DHT22;14501;52.282;10.560;2023-03-31T09:44:47;12.30;99.90
26947;DHT22;14501;52.282;10.560;2023-03-31T09:47:32;12.20;99.90
26947;DHT22;14501;52.282;10.560;2023-03-31T09:50:03;12.10;99.90
26947;DHT22;14501;52.282;10.560;2023-03-31T09:52:33;12.10;99.90
26947;DHT22;14501;52.282;10.560;2023-03-31T09:55:01;12.00;99.90
26947;DHT22;14501;52.282;10.560;2023-03-31T09:58:45;11.70;99.90
26947;DHT22;14501;52.282;10.560;2023-03-31T10:01:13;11.70;99.90
26947;DHT22;14501;52.282;10.560;2023-03-31T10:03:53;11.60;99.90
26947;DHT22;14501;52.282;10.560;2023-03-31T10:06:20;11.60;99.90
26947;DHT22;14501;52.282;10.560;2023-03-31T10:11:12;11.40;99.90
26947;DHT22;14501;52.282;10.560;2023-03-31T10:13:52;11.30;99.90
26947;DHT22;14501;52.282;10.560;2023-03-31T10:16:34;11.20;99.90
26947;DHT22;14501;52.282;10.560;2023-03-31T10:24:40;10.90;99.90
26947;DHT22;14501;52.282;10.560;2023-03-31T10:27:25;10.80;99.90
26947;DHT22;14501;52.282;10.560;2023-03-31T10:30:03;10.70;99.90
26947;DHT22;14501;52.282;10.560;2023-03-31T10:32:40;10.60;99.90
26947;DHT22;14501;52.282;10.560;2023-03-31T10:35:26;10.50;99.90
26947;DHT22;14501;52.282;10.560;2023-03-31T10:38:01;10.50;99.90
26947;DHT22;14501;52.282;10.560;2023-03-31T10:40:29;10.50;99.90
26947;DHT22;14501;52.282;10.560;2023-03-31T10:43:13;10.50;99.90
26947;DHT22;14501;52.282;10.560;2023-03-31T10:45:48;10.40;99.90
26947;DHT22;14501;52.282;10.560;2023-03-31T10:48:35;10.40;99.90
26947;DHT22;14501;52.282;10.560;2023-03-31T10:53:49;10.20;99.90
26947;DHT22;14501;52.282;10.560;2023-03-31T11:05:07;10.00;99.90
26947;DHT22;14501;52.282;10.560;2023-03-31T11:07:57;10.10;99.90
26947;DHT22;14501;52.282;10.560;2023-03-31T11:13:28;10.00;99.90
26947;DHT22;14501;52.282;10.560;2023-03-31T11:33:03;10.00;99.90
26947;DHT22;14501;52.282;10.560;2023-03-31T11:35:52;10.10;99.90
26947;DHT22;14501;52.282;10.560;2023-03-31T11:38:58;10.20;99.90
26947;DHT22;14501;52.282;10.560;2023-03-31T11:41:35;10.20;99.90
26947;DHT22;14501;52.282;10.560;2023-03-31T11:44:04;9.80;99.90
26947;DHT22;14501;52.282;10.560;2023-03-31T11:49:16;10.30;99.90
26947;DHT22;14501;52.282;10.560;2023-03-31T11:54:52;10.30;99.90
26947;DHT22;14501;52.282;10.560;2023-03-31T12:00:20;10.30;99.90
26947;DHT22;14501;52.282;10.560;2023-03-31T12:03:57;10.30;99.90
26947;DHT22;14501;52.282;10.560;2023-03-31T12:06:00;10.40;99.90
26947;DHT22;14501;52.282;10.560;2023-03-31T12:11:39;10.40;99.90
26947;DHT22;14501;52.282;10.560;2023-03-31T12:16:41;10.50;99.90
26947;DHT22;14501;52.282;10.560;2023-03-31T12:19:18;10.60;99.90
26947;DHT22;14501;52.282;10.560;2023-03-31T12:21:51;10.70;99.90
26947;DHT22;14501;52.282;10.560;2023-03-31T12:24:17;10.80;99.90
26947;DHT22;14501;52.282;10.560;2023-03-31T12:29:56;10.90;99.90
26947;DHT22;14501;52.282;10.560;2023-03-31T12:32:27;11.00;99.90
26947;DHT22;14501;52.282;10.560;2023-03-31T12:35:05;11.10;99.90
26947;DHT22;14501;52.282;10.560;2023-03-31T12:43:26;11.30;99.90
26947;DHT22;14501;52.282;10.560;2023-03-31T12:46:23;11.40;99.90
26947;DHT22;14501;52.282;10.560;2023-03-31T12:59:37;12.20;99.90
26947;DHT22;14501;52.282;10.560;2023-03-31T13:02:23;12.30;99.90
26947;DHT22;14501;52.282;10.560;2023-03-31T13:04:48;12.50;99.90
26947;DHT22;14501;52.282;10.560;2023-03-31T13:10:55;12.90;99.90
26947;DHT22;14501;52.282;10.560;2023-03-31T13:12:59;13.00;99.90
26947;DHT22;14501;52.282;10.560;2023-03-31T13:15:26;13.10;99.90
26947;DHT22;14501;52.282;10.560;2023-03-31T13:18:04;13.10;99.90
26947;DHT22;14501;52.282;10.560;2023-03-31T13:20:37;13.10;99.90
26947;DHT22;14501;52.282;10.560;2023-03-31T13:23:22;13.40;99.90
26947;DHT22;14501;52.282;10.560;2023-03-31T13:25:54;13.50;99.90
26947;DHT22;14501;52.282;10.560;2023-03-31T13:33:24;13.60;99.90
26947;DHT22;14501;52.282;10.560;2023-03-31T13:50:04;14.80;99.90
26947;DHT22;14501;52.282;10.560;2023-03-31T13:52:46;15.10;99.90
26947;DHT22;14501;52.282;10.560;2023-03-31T13:55:49;15.20;99.90
26947;DHT22;14501;52.282;10.560;2023-03-31T14:03:52;14.90;99.90
26947;DHT22;14501;52.282;10.560;2023-03-31T14:06:35;14.70;99.90
26947;DHT22;14501;52.282;10.560;2023-03-31T14:09:08;14.40;99.90
26947;DHT22;14501;52.282;10.560;2023-03-31T14:11:34;14.40;99.90
26947;DHT22;14501;52.282;10.560;2023-03-31T14:14:27;14.30;99.90
26947;DHT22;14501;52.282;10.560;2023-03-31T14:16:58;14.20;99.90
26947;DHT22;14501;52.282;10.560;2023-03-31T14:30:38;13.70;99.90
26947;DHT22;14501;52.282;10.560;2023-03-31T14:33:37;13.60;99.90
26947;DHT22;14501;52.282;10.560;2023-03-31T14:36:25;13.60;99.90
26947;DHT22;14501;52.282;10.560;2023-03-31T14:38:54;13.80;99.90
26947;DHT22;14501;52.282;10.560;2023-03-31T14:41:25;13.80;99.90
26947;DHT22;14501;52.282;10.560;2023-03-31T14:43:55;13.80;99.90
26947;DHT22;14501;52.282;10.560;2023-03-31T14:46:21;13.90;99.90
26947;DHT22;14501;52.282;10.560;2023-03-31T14:48:49;14.00;99.90
26947;DHT22;14501;52.282;10.560;2023-03-31T14:51:26;14.10;99.90
26947;DHT22;14501;52.282;10.560;2023-03-31T14:54:00;14.50;99.90
26947;DHT22;14501;52.282;10.560;2023-03-31T14:56:28;14.60;99.90
26947;DHT22;14501;52.282;10.560;2023-03-31T14:58:56;14.70;99.90
26947;DHT22;14501;52.282;10.560;2023-03-31T15:01:25;14.70;99.90
26947;DHT22;14501;52.282;10.560;2023-03-31T15:03:54;14.70;99.90
26947;DHT22;14501;52.282;10.560;2023-03-31T15:06:23;14.60;99.90
26947;DHT22;14501;52.282;10.560;2023-03-31T15:08:54;14.40;99.90
26947;DHT22;14501;52.282;10.560;2023-03-31T15:11:22;14.40;99.90
26947;DHT22;14501;52.282;10.560;2023-03-31T15:13:49;14.60;99.90
26947;DHT22;14501;52.282;10.560;2023-03-31T15:18:44;14.80;99.90
26947;DHT22;14501;52.282;10.560;2023-03-31T15:21:19;14.90;99.90
26947;DHT22;14501;52.282;10.560;2023-03-31T15:23:45;15.10;99.90
26947;DHT22;14501;52.282;10.560;2023-03-31T15:26:11;15.00;99.90
26947;DHT22;14501;52.282;10.560;2023-03-31T15:28:54;14.90;99.90
26947;DHT22;14501;52.282;10.560;2023-03-31T15:31:21;14.80;99.90
26947;DHT22;14501;52.282;10.560;2023-03-31T15:33:49;14.70;99.90
26947;DHT22;14501;52.282;10.560;2023-03-31T15:36:15;14.50;99.90
26947;DHT22;14501;52.282;10.560;2023-03-31T15:38:41;14.30;99.90
26947;DHT22;14501;52.282;10.560;2023-03-31T15:41:15;14.10;99.90
26947;DHT22;14501;52.282;10.560;2023-03-31T15:43:45;13.90;99.90
26947;DHT22;14501;52.282;10.560;2023-03-31T15:46:23;13.60;99.90
26947;DHT22;14501;52.282;10.560;2023-03-31T15:48:52;13.40;99.90
26947;DHT22;14501;52.282;10.560;2023-03-31T15:51:44;13.30;99.90
26947;DHT22;14501;52.282;10.560;2023-03-31T15:57:00;12.90;99.90
26947;DHT22;14501;52.282;10.560;2023-03-31T15:59:27;12.70;99.90
26947;DHT22;14501;52.282;10.560;2023-03-31T16:01:55;12.70;99.90
26947;DHT22;14501;52.282;10.560;2023-03-31T16:04:22;12.60;99.90
26947;DHT22;14501;52.282;10.560;2023-03-31T16:09:36;12.70;99.90
26947;DHT22;14501;52.282;10.560;2023-03-31T16:12:08;12.70;99.90
26947;DHT22;14501;52.282;10.560;2023-03-31T16:14:38;12.80;99.90
26947;DHT22;14501;52.282;10.560;2023-03-31T16:17:24;12.80;99.90
26947;DHT22;14501;52.282;10.560;2023-03-31T16:19:57;12.90;99.90
26947;DHT22;14501;52.282;10.560;2023-03-31T16:22:31;12.90;99.90
26947;DHT22;14501;52.282;10.560;2023-03-31T16:24:59;12.90;99.90
26947;DHT22;14501;52.282;10.560;2023-03-31T16:27:25;12.90;99.90
26947;DHT22;14501;52.282;10.560;2023-03-31T16:30:13;12.80;99.90
26947;DHT22;14501;52.282;10.560;2023-03-31T16:35:35;12.70;99.90
26947;DHT22;14501;52.282;10.560;2023-03-31T16:38:02;12.60;99.90
26947;DHT22;14501;52.282;10.560;2023-03-31T16:40:29;12.60;99.90
26947;DHT22;14501;52.282;10.560;2023-03-31T16:43:18;12.60;99.90
26947;DHT22;14501;52.282;10.560;2023-03-31T16:45:47;12.60;99.90
26947;DHT22;14501;52.282;10.560;2023-03-31T16:48:17;12.60;99.90
26947;DHT22;14501;52.282;10.560;2023-03-31T16:50:48;12.60;99.90
26947;DHT22;14501;52.282;10.560;2023-03-31T16:53:19;12.60;99.90
26947;DHT22;14501;52.282;10.560;2023-03-31T16:55:46;12.50;99.90
26947;DHT22;14501;52.282;10.560;2023-03-31T16:58:12;12.40;99.90
26947;DHT22;14501;52.282;10.560;2023-03-31T17:00:38;12.40;99.90
26947;DHT22;14501;52.282;10.560;2023-03-31T17:03:06;12.40;99.90
26947;DHT22;14501;52.282;10.560;2023-03-31T17:05:38;12.40;99.90
26947;DHT22;14501;52.282;10.560;2023-03-31T17:08:04;12.30;99.90
26947;DHT22;14501;52.282;10.560;2023-03-31T17:10:29;12.30;99.90
26947;DHT22;14501;52.282;10.560;2023-03-31T17:12:55;12.30;99.90
26947;DHT22;14501;52.282;10.560;2023-03-31T17:15:21;12.30;99.90
26947;DHT22;14501;52.282;10.560;2023-03-31T17:17:47;12.20;99.90
26947;DHT22;14501;52.282;10.560;2023-03-31T17:20:13;12.10;99.90
26947;DHT22;14501;52.282;10.560;2023-03-31T17:22:39;12.10;99.90
26947;DHT22;14501;52.282;10.560;2023-03-31T17:25:05;12.10;99.90
26947;DHT22;14501;52.282;10.560;2023-03-31T17:27:32;12.00;99.90
26947;DHT22;14501;52.282;10.560;2023-03-31T17:29:58;11.80;99.90
26947;DHT22;14501;52.282;10.560;2023-03-31T17:32:25;11.80;99.90
26947;DHT22;14501;52.282;10.560;2023-03-31T17:34:50;11.80;99.90
26947;DHT22;14501;52.282;10.560;2023-03-31T17:37:17;11.80;99.90
26947;DHT22;14501;52.282;10.560;2023-03-31T17:39:43;11.70;99.90
26947;DHT22;14501;52.282;10.560;2023-03-31T17:42:12;11.70;99.90
26947;DHT22;14501;52.282;10.560;2023-03-31T17:44:39;11.60;99.90
26947;DHT22;14501;52.282;10.560;2023-03-31T17:47:05;11.60;99.90
26947;DHT22;14501;52.282;10.560;2023-03-31T17:49:31;11.60;99.90
26947;DHT22;14501;52.282;10.560;2023-03-31T17:51:58;11.60;99.90
26947;DHT22;14501;52.282;10.560;2023-03-31T17:54:25;11.50;99.90
26947;DHT22;14501;52.282;10.560;2023-03-31T17:56:51;11.50;99.90
26947;DHT22;14501;52.282;10.560;2023-03-31T17:59:20;11.50;99.90
26947;DHT22;14501;52.282;10.560;2023-03-31T18:01:46;11.50;99.90
26947;DHT22;14501;52.282;10.560;2023-03-31T18:04:12;11.50;99.90
26947;DHT22;14501;52.282;10.560;2023-03-31T18:06:38;11.50;99.90
26947;DHT22;14501;52.282;10.560;2023-03-31T18:09:04;11.50;99.90
26947;DHT22;14501;52.282;10.560;2023-03-31T18:11:30;11.50;99.90
26947;DHT22;14501;52.282;10.560;2023-03-31T18:13:57;11.40;99.90
26947;DHT22;14501;52.282;10.560;2023-03-31T18:16:26;11.40;99.90
26947;DHT22;14501;52.282;10.560;2023-03-31T18:18:52;11.40;99.90
26947;DHT22;14501;52.282;10.560;2023-03-31T18:21:18;11.40;99.90
26947;DHT22;14501;52.282;10.560;2023-03-31T18:23:43;11.30;99.90
26947;DHT22;14501;52.282;10.560;2023-03-31T18:26:11;11.30;99.90
26947;DHT22;14501;52.282;10.560;2023-03-31T18:28:38;11.10;99.90
26947;DHT22;14501;52.282;10.560;2023-03-31T18:31:06;11.00;99.90
26947;DHT22;14501;52.282;10.560;2023-03-31T18:33:33;10.90;99.90
26947;DHT22;14501;52.282;10.560;2023-03-31T18:35:59;10.70;99.90
26947;DHT22;14501;52.282;10.560;2023-03-31T18:38:25;10.50;99.90
26947;DHT22;14501;52.282;10.560;2023-03-31T18:40:51;10.50;99.90
26947;DHT22;14501;52.282;10.560;2023-03-31T18:43:18;10.40;99.90
26947;DHT22;14501;52.282;10.560;2023-03-31T18:45:50;10.30;99.90
26947;DHT22;14501;52.282;10.560;2023-03-31T18:48:17;10.30;99.90
26947;DHT22;14501;52.282;10.560;2023-03-31T18:50:44;10.30;99.90
26947;DHT22;14501;52.282;10.560;2023-03-31T18:53:10;10.30;99.90